Time;durP1;ratioP1;P1;durP2;ratioP2;P2;SDS_P1;SDS_P2;PMS_P1;PMS_P2;Temp;Humidity;BMP_temperature;BMP_pressure;BME280_temperature;BME280_humidity;BME280_pressure;Samples;Min_cycle;Max_cycle;Signal;HPM_P1;HPM_P2
2022/06/15 00:02:08;;;;;;;;;9.33;9.33;;;;;;;;6489664;47;8905;-63
2022/06/15 00:08:48;;;;;;;;;12.33;11.67;;;;;;;;6491322;39;8879;-64
2022/06/15 00:15:16;;;;;;;;;10.33;10.33;;;;;;;;6491183;36;8844;-65
2022/06/15 00:21:36;;;;;;;;;10.33;9.33;;;;;;;;6489890;47;8893;-64
2022/06/15 00:28:17;;;;;;;;;12.00;9.67;;;;;;;;6489317;47;8868;-64
2022/06/15 00:34:32;;;;;;;;;10.33;8.00;;;;;;;;6489647;39;8960;-65
2022/06/15 00:40:45;;;;;;;;;10.33;9.67;;;;;;;;6491551;39;8888;-64
2022/06/15 00:47:30;;;;;;;;;12.33;10.67;;;;;;;;6492414;46;8861;-64
2022/06/15 00:53:43;;;;;;;;;11.00;11.00;;;;;;;;6490498;46;8951;-63
2022/06/15 01:00:12;;;;;;;;;14.33;13.33;;;;;;;;6492380;46;8903;-62
2022/06/15 01:06:46;;;;;;;;;9.50;9.50;;;;;;;;6490508;39;8927;-64
2022/06/15 01:13:32;;;;;;;;;12.67;12.67;;;;;;;;6491774;31;8948;-64
2022/06/15 01:20:28;;;;;;;;;10.00;8.00;;;;;;;;6490195;39;8907;-63
2022/06/15 01:27:39;;;;;;;;;10.00;10.00;;;;;;;;6490589;46;8959;-63
2022/06/15 01:34:18;;;;;;;;;10.00;9.00;;;;;;;;6492058;39;8951;-64
2022/06/15 01:41:16;;;;;;;;;12.00;12.00;;;;;;;;6490241;46;8881;-64
2022/06/15 01:47:48;;;;;;;;;11.00;11.00;;;;;;;;6491528;39;8887;-64
2022/06/15 01:54:13;;;;;;;;;13.00;13.00;;;;;;;;6490994;31;9067;-65
2022/06/15 02:00:57;;;;;;;;;7.67;7.67;;;;;;;;6491303;39;8868;-63
2022/06/15 02:07:28;;;;;;;;;11.00;11.00;;;;;;;;6490320;46;8967;-64
2022/06/15 02:14:02;;;;;;;;;11.00;9.33;;;;;;;;6491139;39;9586;-64
2022/06/15 02:20:33;;;;;;;;;8.00;8.00;;;;;;;;6489685;46;8993;-64
2022/06/15 02:26:44;;;;;;;;;10.00;10.00;;;;;;;;6490762;46;8900;-64
2022/06/15 02:33:19;;;;;;;;;10.00;8.33;;;;;;;;6490556;31;8961;-64
2022/06/15 02:39:49;;;;;;;;;10.00;10.00;;;;;;;;6490103;46;8891;-65
2022/06/15 02:46:19;;;;;;;;;11.00;10.00;;;;;;;;6490438;39;8900;-63
2022/06/15 02:53:27;;;;;;;;;11.00;11.00;;;;;;;;6492011;31;8943;-64
2022/06/15 02:59:55;;;;;;;;;10.00;8.33;;;;;;;;6490572;39;9012;-64
2022/06/15 03:06:20;;;;;;;;;10.67;9.00;;;;;;;;6491050;39;8948;-64
2022/06/15 03:12:29;;;;;;;;;10.00;10.00;;;;;;;;6490058;46;8947;-63
2022/06/15 03:18:43;;;;;;;;;13.00;11.67;;;;;;;;6490544;39;8923;-64
2022/06/15 03:24:56;;;;;;;;;11.00;11.00;;;;;;;;6489896;39;8893;-63
2022/06/15 03:31:19;;;;;;;;;9.67;9.00;;;;;;;;6490739;39;8978;-64
2022/06/15 03:37:39;;;;;;;;;11.33;11.33;;;;;;;;6490495;39;8897;-64
2022/06/15 03:44:10;;;;;;;;;8.33;8.33;;;;;;;;6490327;39;9341;-63
2022/06/15 03:50:27;;;;;;;;;11.33;11.00;;;;;;;;6490585;31;9622;-64
2022/06/15 03:56:59;;;;;;;;;9.67;9.67;;;;;;;;6490194;39;8964;-64
2022/06/15 04:03:17;;;;;;;;;9.67;9.67;;;;;;;;6466284;39;9049;-63
2022/06/15 04:09:32;;;;;;;;;3.00;3.00;;;;;;;;6490115;47;9021;-63
2022/06/15 04:15:44;;;;;;;;;8.33;8.33;;;;;;;;6492121;46;8921;-62
2022/06/15 04:21:49;;;;;;;;;9.00;9.00;;;;;;;;6492884;46;8914;-63
2022/06/15 04:27:55;;;;;;;;;8.00;8.00;;;;;;;;6492052;39;8924;-63
2022/06/15 04:33:58;;;;;;;;;10.67;10.00;;;;;;;;6489410;46;8935;-62
2022/06/15 04:40:06;;;;;;;;;9.67;9.67;;;;;;;;6493741;31;9030;-62
2022/06/15 04:46:09;;;;;;;;;10.00;8.25;;;;;;;;6492540;39;8845;-63
2022/06/15 04:52:12;;;;;;;;;11.75;11.50;;;;;;;;6492518;31;8991;-62
2022/06/15 04:58:17;;;;;;;;;10.25;8.75;;;;;;;;6492263;39;9924;-62
2022/06/15 05:04:29;;;;;;;;;9.33;9.33;;;;;;;;6491467;31;8985;-62
2022/06/15 05:10:32;;;;;;;;;10.25;10.00;;;;;;;;6486434;36;8904;-62
2022/06/15 05:16:36;;;;;;;;;10.75;10.75;;;;;;;;6490818;39;8862;-62
2022/06/15 05:22:53;;;;;;;;;9.25;9.25;;;;;;;;6490724;39;8829;-62
2022/06/15 05:29:22;;;;;;;;;7.25;6.75;;;;;;;;6491938;46;8988;-61
2022/06/15 05:35:33;;;;;;;;;9.50;9.50;;;;;;;;6487036;46;8933;-61
2022/06/15 05:41:40;;;;;;;;;10.75;9.25;;;;;;;;6489872;46;8894;-61
2022/06/15 05:47:42;;;;;;;;;9.25;9.25;;;;;;;;6491877;39;9645;-61
2022/06/15 05:54:16;;;;;;;;;11.33;9.33;;;;;;;;6490274;39;9070;-59
2022/06/15 06:00:22;;;;;;;;;11.25;10.75;;;;;;;;6489375;46;8962;-61
2022/06/15 06:06:27;;;;;;;;;10.00;9.00;;;;;;;;6484693;46;9015;-61
2022/06/15 06:12:30;;;;;;;;;12.00;12.00;;;;;;;;6491365;31;8944;-60
2022/06/15 06:18:37;;;;;;;;;12.50;11.00;;;;;;;;6487826;39;9571;-61
2022/06/15 06:24:39;;;;;;;;;10.75;10.75;;;;;;;;6488702;46;8947;-61
2022/06/15 06:30:43;;;;;;;;;12.75;11.00;;;;;;;;6491936;39;8909;-62
2022/06/15 06:36:49;;;;;;;;;10.50;10.50;;;;;;;;6490063;46;8899;-60
2022/06/15 06:42:52;;;;;;;;;10.25;10.25;;;;;;;;6489174;46;8960;-61
2022/06/15 06:48:54;;;;;;;;;10.33;9.00;;;;;;;;6490267;31;8974;-62
2022/06/15 06:54:56;;;;;;;;;11.00;10.50;;;;;;;;6488242;39;8942;-61
2022/06/15 07:00:59;;;;;;;;;11.75;9.50;;;;;;;;6491152;39;9628;-61
2022/06/15 07:07:01;;;;;;;;;7.50;7.50;;;;;;;;6490187;39;9559;-60
2022/06/15 07:13:07;;;;;;;;;7.75;6.50;;;;;;;;6461343;31;8925;-60
2022/06/15 07:19:11;;;;;;;;;10.25;10.25;;;;;;;;6491678;31;8929;-60
2022/06/15 07:25:13;;;;;;;;;8.50;7.25;;;;;;;;6490428;31;8954;-60
2022/06/15 07:31:29;;;;;;;;;9.00;8.00;;;;;;;;6489012;39;8890;-60
2022/06/15 07:37:35;;;;;;;;;6.00;6.00;;;;;;;;6489085;39;8923;-59
2022/06/15 07:43:59;;;;;;;;;7.50;6.25;;;;;;;;6489446;39;8909;-58
2022/06/15 07:50:04;;;;;;;;;9.75;9.25;;;;;;;;6489248;31;9039;-59
2022/06/15 07:56:28;;;;;;;;;7.50;6.50;;;;;;;;6489345;46;8957;-58
2022/06/15 08:02:30;;;;;;;;;7.00;7.00;;;;;;;;6490297;39;8909;-59
2022/06/15 08:08:35;;;;;;;;;5.50;5.50;;;;;;;;6489153;31;8894;-59
2022/06/15 08:14:59;;;;;;;;;5.75;5.00;;;;;;;;6490612;31;8909;-59
2022/06/15 08:21:10;;;;;;;;;9.00;9.00;;;;;;;;6489147;39;9037;-60
2022/06/15 08:27:14;;;;;;;;;9.00;8.25;;;;;;;;6488746;46;8971;-58
2022/06/15 08:33:16;;;;;;;;;11.25;8.75;;;;;;;;6490460;31;8879;-58
2022/06/15 08:39:19;;;;;;;;;11.25;11.00;;;;;;;;6487345;39;8955;-60
2022/06/15 08:45:31;;;;;;;;;13.75;11.50;;;;;;;;6488550;39;9587;-59
2022/06/15 08:51:41;;;;;;;;;11.75;10.75;;;;;;;;6489742;31;8927;-59
2022/06/15 08:58:18;;;;;;;;;10.75;10.00;;;;;;;;6488968;39;8863;-60
2022/06/15 09:04:37;;;;;;;;;11.50;11.50;;;;;;;;6488077;31;8973;-60
2022/06/15 09:10:59;;;;;;;;;7.75;7.75;;;;;;;;6487905;39;9008;-59
2022/06/15 09:17:07;;;;;;;;;11.00;10.00;;;;;;;;6490758;46;8962;-59
2022/06/15 09:23:30;;;;;;;;;11.25;11.25;;;;;;;;6491536;36;8949;-60
2022/06/15 09:29:45;;;;;;;;;11.67;9.00;;;;;;;;6489820;31;9046;-61
2022/06/15 09:35:53;;;;;;;;;11.00;10.25;;;;;;;;6491027;31;8978;-60
2022/06/15 09:42:20;;;;;;;;;11.00;10.00;;;;;;;;6486545;39;8899;-61
2022/06/15 09:48:44;;;;;;;;;10.75;10.75;;;;;;;;6486077;31;8935;-61
2022/06/15 09:54:58;;;;;;;;;9.25;9.00;;;;;;;;6488898;39;9167;-60
2022/06/15 10:01:01;;;;;;;;;11.00;9.75;;;;;;;;6486486;39;9020;-61
2022/06/15 10:07:13;;;;;;;;;10.25;6.25;;;;;;;;6488688;46;8922;-63
2022/06/15 10:13:37;;;;;;;;;8.00;8.00;;;;;;;;6486246;31;9162;-61
2022/06/15 10:19:46;;;;;;;;;9.00;8.00;;;;;;;;6488963;31;8972;-61
2022/06/15 10:25:55;;;;;;;;;9.50;9.50;;;;;;;;6485709;31;9001;-60
2022/06/15 10:32:00;;;;;;;;;10.00;9.50;;;;;;;;6487765;31;8970;-59
2022/06/15 10:38:10;;;;;;;;;8.25;8.25;;;;;;;;6489545;39;8881;-60
2022/06/15 10:44:28;;;;;;;;;12.00;12.00;;;;;;;;6488267;36;8894;-60
2022/06/15 10:50:47;;;;;;;;;11.00;11.00;;;;;;;;6487665;39;9542;-61
2022/06/15 11:03:42;;;;;;;;;7.25;6.00;;;;;;;;6482864;39;8969;-61
2022/06/15 11:10:03;;;;;;;;;21.25;21.25;;;;;;;;6488129;31;8945;-60
2022/06/15 11:23:04;;;;;;;;;8.00;8.00;;;;;;;;6485001;31;9659;-60
2022/06/15 11:29:21;;;;;;;;;20.25;20.00;;;;;;;;6487347;31;8885;-61
2022/06/15 11:36:09;;;;;;;;;8.00;8.00;;;;;;;;6488386;31;9104;-61
2022/06/15 11:42:15;;;;;;;;;25.25;24.75;;;;;;;;6488377;39;8980;-60
2022/06/15 11:48:45;;;;;;;;;7.00;7.00;;;;;;;;6489812;39;9634;-60
2022/06/15 14:08:33;;;;;;;;;6.25;6.25;;;;;;;;5770259;36;10001003;-60
2022/06/15 14:15:06;;;;;;;;;15.50;14.25;;;;;;;;6490159;39;8968;-60
2022/06/15 14:21:15;;;;;;;;;7.25;7.25;;;;;;;;6494207;31;8918;-61
2022/06/15 14:27:26;;;;;;;;;7.75;7.75;;;;;;;;6491987;46;8976;-60
2022/06/15 14:33:30;;;;;;;;;10.25;9.25;;;;;;;;6492338;46;8839;-62
2022/06/15 14:39:42;;;;;;;;;7.00;7.00;;;;;;;;6491362;39;8893;-62
2022/06/15 14:45:51;;;;;;;;;7.00;7.00;;;;;;;;6491400;46;8907;-61
2022/06/15 14:52:19;;;;;;;;;11.00;11.00;;;;;;;;6490533;46;8949;-62
2022/06/15 14:58:22;;;;;;;;;7.25;7.25;;;;;;;;6492191;31;9598;-61
2022/06/15 15:04:25;;;;;;;;;5.00;4.25;;;;;;;;6491800;46;8959;-61
2022/06/15 15:10:44;;;;;;;;;9.50;9.25;;;;;;;;6494145;36;8888;-63
2022/06/15 15:17:20;;;;;;;;;5.00;5.00;;;;;;;;6491922;39;8836;-63
2022/06/15 15:23:44;;;;;;;;;12.75;12.75;;;;;;;;6488753;39;8876;-62
2022/06/15 15:36:14;;;;;;;;;6.25;6.25;;;;;;;;6491525;39;8863;-62
2022/06/15 15:42:22;;;;;;;;;3.50;3.50;;;;;;;;6493235;31;8995;-63
2022/06/15 15:48:24;;;;;;;;;8.25;8.25;;;;;;;;6491770;39;9439;-61
2022/06/15 15:54:30;;;;;;;;;8.00;8.00;;;;;;;;6490340;47;8943;-61
2022/06/15 16:00:33;;;;;;;;;9.00;9.00;;;;;;;;6490322;39;9018;-61
2022/06/15 16:06:38;;;;;;;;;8.00;8.00;;;;;;;;6489590;31;9023;-60
2022/06/15 16:12:42;;;;;;;;;9.25;8.25;;;;;;;;6492385;39;8852;-62
2022/06/15 16:18:45;;;;;;;;;10.50;9.00;;;;;;;;6492578;39;8856;-62
2022/06/15 16:24:50;;;;;;;;;10.00;9.75;;;;;;;;6492190;39;8892;-62
2022/06/15 16:30:55;;;;;;;;;10.00;9.50;;;;;;;;6493554;39;8839;-61
2022/06/15 16:36:59;;;;;;;;;9.50;8.75;;;;;;;;6492821;31;8905;-63
2022/06/15 16:43:03;;;;;;;;;8.50;8.50;;;;;;;;6492538;46;8832;-63
2022/06/15 16:49:07;;;;;;;;;10.75;9.00;;;;;;;;6492774;39;9606;-63
2022/06/15 16:55:19;;;;;;;;;7.25;7.00;;;;;;;;6493438;39;8906;-62
2022/06/15 17:01:22;;;;;;;;;7.75;7.75;;;;;;;;6492039;46;8880;-62
2022/06/15 17:07:26;;;;;;;;;8.50;7.75;;;;;;;;6491862;39;9488;-62
2022/06/15 17:13:33;;;;;;;;;10.50;10.50;;;;;;;;6493837;39;8865;-63
2022/06/15 17:19:42;;;;;;;;;9.00;7.50;;;;;;;;6492372;31;8895;-62
2022/06/15 17:25:49;;;;;;;;;13.00;11.00;;;;;;;;6491860;39;8931;-62
2022/06/15 17:31:55;;;;;;;;;9.75;9.75;;;;;;;;6492357;46;8871;-62
2022/06/15 17:38:01;;;;;;;;;9.50;9.50;;;;;;;;6492572;46;8956;-62
2022/06/15 17:44:05;;;;;;;;;11.50;11.00;;;;;;;;6493259;46;8906;-62
2022/06/15 17:50:10;;;;;;;;;13.00;9.75;;;;;;;;6492585;39;8889;-62
2022/06/15 17:56:14;;;;;;;;;12.25;12.25;;;;;;;;6494039;31;8875;-62
2022/06/15 18:02:18;;;;;;;;;8.75;8.75;;;;;;;;6492184;39;8867;-62
2022/06/15 18:08:21;;;;;;;;;12.00;12.00;;;;;;;;6492038;46;8981;-62
2022/06/15 18:14:37;;;;;;;;;13.25;12.25;;;;;;;;6492539;39;9553;-61
2022/06/15 18:20:46;;;;;;;;;14.50;14.00;;;;;;;;6493161;31;8842;-62
2022/06/15 18:26:51;;;;;;;;;16.00;16.00;;;;;;;;6492140;39;8831;-63
2022/06/15 18:32:55;;;;;;;;;12.00;11.75;;;;;;;;6491463;46;8842;-62
2022/06/15 18:38:59;;;;;;;;;13.00;13.00;;;;;;;;6492160;39;9531;-62
2022/06/15 18:51:30;;;;;;;;;13.00;13.00;;;;;;;;6492482;31;8989;-61
2022/06/15 18:57:32;;;;;;;;;14.50;13.50;;;;;;;;6492678;46;8988;-62
2022/06/15 19:03:38;;;;;;;;;11.75;11.75;;;;;;;;6491455;39;8933;-63
2022/06/15 19:09:45;;;;;;;;;13.75;11.50;;;;;;;;6492490;39;8826;-63
2022/06/15 19:15:49;;;;;;;;;11.00;10.25;;;;;;;;6491599;39;8883;-62
2022/06/15 19:21:56;;;;;;;;;11.75;10.75;;;;;;;;6490930;39;8873;-62
2022/06/15 19:27:59;;;;;;;;;14.00;14.00;;;;;;;;6492368;46;8827;-62
2022/06/15 19:34:03;;;;;;;;;12.50;12.50;;;;;;;;6493410;31;8856;-61
2022/06/15 19:40:06;;;;;;;;;13.67;13.67;;;;;;;;6492126;46;8895;-62
2022/06/15 19:46:08;;;;;;;;;11.50;10.75;;;;;;;;6491269;39;8867;-62
2022/06/15 19:52:16;;;;;;;;;12.75;12.25;;;;;;;;6491908;39;8872;-62
2022/06/15 19:58:21;;;;;;;;;16.50;16.50;;;;;;;;6493479;31;9051;-61
2022/06/15 20:04:23;;;;;;;;;14.33;14.00;;;;;;;;6491186;39;8915;-62
2022/06/15 20:10:26;;;;;;;;;19.75;18.50;;;;;;;;6509718;36;8957;-62
2022/06/15 20:16:38;;;;;;;;;18.25;16.00;;;;;;;;6492194;31;8927;-62
2022/06/15 20:22:45;;;;;;;;;20.00;16.25;;;;;;;;6491451;39;8854;-62
2022/06/15 20:28:54;;;;;;;;;15.00;15.00;;;;;;;;6491381;47;8888;-61
2022/06/15 20:34:57;;;;;;;;;16.75;16.75;;;;;;;;6490799;39;9480;-63
2022/06/15 20:41:00;;;;;;;;;18.50;17.50;;;;;;;;6491045;47;8903;-62
2022/06/15 20:47:05;;;;;;;;;22.33;21.33;;;;;;;;6490797;39;8890;-63
2022/06/15 20:53:14;;;;;;;;;24.67;20.67;;;;;;;;6490670;46;8848;-62
2022/06/15 20:59:26;;;;;;;;;21.00;18.75;;;;;;;;6492362;46;8925;-62
2022/06/15 21:05:31;;;;;;;;;21.25;21.25;;;;;;;;6494025;31;8928;-62
2022/06/15 21:17:56;;;;;;;;;16.50;13.00;;;;;;;;6492707;46;8974;-62
2022/06/15 21:23:59;;;;;;;;;23.67;20.67;;;;;;;;6493507;39;8949;-63
2022/06/15 21:30:06;;;;;;;;;20.33;20.00;;;;;;;;6492805;31;9523;-62
2022/06/15 21:36:09;;;;;;;;;20.00;20.00;;;;;;;;6493142;46;8912;-63
2022/06/15 21:42:15;;;;;;;;;20.33;17.67;;;;;;;;6492232;39;8871;-62
2022/06/15 21:48:18;;;;;;;;;18.67;18.67;;;;;;;;6492792;31;8886;-62
2022/06/15 21:54:20;;;;;;;;;20.67;19.00;;;;;;;;6493183;39;8931;-62
2022/06/15 22:00:23;;;;;;;;;22.00;21.33;;;;;;;;6492070;39;8968;-63
2022/06/15 22:06:26;;;;;;;;;26.33;23.33;;;;;;;;6493085;39;9527;-63
2022/06/15 22:12:28;;;;;;;;;21.00;21.00;;;;;;;;6491933;36;8835;-62
2022/06/15 22:18:35;;;;;;;;;24.00;19.00;;;;;;;;6491683;39;8944;-62
2022/06/15 22:24:39;;;;;;;;;18.33;18.33;;;;;;;;6492863;31;8870;-62
2022/06/15 22:30:42;;;;;;;;;23.00;23.00;;;;;;;;6491114;46;8902;-61
2022/06/15 22:36:46;;;;;;;;;27.00;23.67;;;;;;;;6492245;46;8847;-62
2022/06/15 22:42:50;;;;;;;;;23.67;23.33;;;;;;;;6491407;31;8872;-62
2022/06/15 22:55:13;;;;;;;;;20.50;20.50;;;;;;;;6491911;31;9110;-61
2022/06/15 23:01:19;;;;;;;;;21.67;19.67;;;;;;;;6311386;36;10000950;-62
2022/06/15 23:07:22;;;;;;;;;20.33;19.33;;;;;;;;6493605;31;8892;-62
2022/06/15 23:13:24;;;;;;;;;21.67;19.00;;;;;;;;6492354;39;8909;-63
2022/06/15 23:19:26;;;;;;;;;20.67;19.33;;;;;;;;6491363;46;8986;-61
2022/06/15 23:25:28;;;;;;;;;17.00;15.33;;;;;;;;6492000;39;9016;-61
2022/06/15 23:31:31;;;;;;;;;19.33;19.00;;;;;;;;6491736;39;8876;-62
2022/06/15 23:37:35;;;;;;;;;19.33;18.33;;;;;;;;6491956;47;8910;-63
2022/06/15 23:43:43;;;;;;;;;14.00;13.33;;;;;;;;6492489;31;8915;-63
2022/06/15 23:49:48;;;;;;;;;21.33;17.67;;;;;;;;6491660;36;9101;-62
2022/06/15 23:55:52;;;;;;;;;20.67;17.00;;;;;;;;6491866;47;8940;-63
